sensor_id;sensor_type;location;lat;lon;timestamp;pressure;altitude;pressure_sealevel;temperature;humidity
56182;BME280;51963;46.052;14.544;2023-04-08T00:00:44;98209.66;;;7.30;54.12
56182;BME280;51963;46.052;14.544;2023-04-08T00:03:10;98193.13;;;7.13;53.86
56182;BME280;51963;46.052;14.544;2023-04-08T00:05:36;98203.50;;;7.07;54.86
56182;BME280;51963;46.052;14.544;2023-04-08T00:08:01;98209.94;;;7.04;55.08
56182;BME280;51963;46.052;14.544;2023-04-08T00:10:27;98206.00;;;6.92;55.11
56182;BME280;51963;46.052;14.544;2023-04-08T00:12:53;98201.13;;;6.80;55.50
56182;BME280;51963;46.052;14.544;2023-04-08T00:15:19;98201.75;;;6.82;55.02
56182;BME280;51963;46.052;14.544;2023-04-08T00:17:45;98211.94;;;6.85;54.58
56182;BME280;51963;46.052;14.544;2023-04-08T00:20:11;98210.31;;;6.76;55.64
56182;BME280;51963;46.052;14.544;2023-04-08T00:22:36;98198.66;;;6.62;56.18
56182;BME280;51963;46.052;14.544;2023-04-08T00:25:02;98217.56;;;6.66;55.76
56182;BME280;51963;46.052;14.544;2023-04-08T00:27:31;98222.97;;;6.64;55.50
56182;BME280;51963;46.052;14.544;2023-04-08T00:29:57;98206.09;;;6.50;56.44
56182;BME280;51963;46.052;14.544;2023-04-08T00:32:25;98203.13;;;6.53;57.19
56182;BME280;51963;46.052;14.544;2023-04-08T00:34:51;98209.19;;;6.45;57.35
56182;BME280;51963;46.052;14.544;2023-04-08T00:37:17;98192.31;;;6.23;58.50
56182;BME280;51963;46.052;14.544;2023-04-08T00:39:43;98207.06;;;6.16;59.35
56182;BME280;51963;46.052;14.544;2023-04-08T00:42:08;98208.38;;;6.12;59.95
56182;BME280;51963;46.052;14.544;2023-04-08T00:44:34;98200.13;;;5.90;60.22
56182;BME280;51963;46.052;14.544;2023-04-08T00:47:00;98209.44;;;5.84;61.08
56182;BME280;51963;46.052;14.544;2023-04-08T00:49:25;98199.91;;;5.75;61.12
56182;BME280;51963;46.052;14.544;2023-04-08T00:51:52;98201.72;;;5.66;61.08
56182;BME280;51963;46.052;14.544;2023-04-08T00:54:18;98200.72;;;5.59;62.46
56182;BME280;51963;46.052;14.544;2023-04-08T00:56:44;98200.84;;;5.49;63.11
56182;BME280;51963;46.052;14.544;2023-04-08T00:59:10;98180.75;;;5.23;63.47
56182;BME280;51963;46.052;14.544;2023-04-08T01:01:42;98182.19;;;5.18;64.82
56182;BME280;51963;46.052;14.544;2023-04-08T01:04:20;98186.44;;;5.19;65.11
56182;BME280;51963;46.052;14.544;2023-04-08T01:09:26;98197.53;;;5.04;68.15
56182;BME280;51963;46.052;14.544;2023-04-08T01:11:52;98190.97;;;5.00;68.05
56182;BME280;51963;46.052;14.544;2023-04-08T01:14:25;98152.47;;;4.66;68.26
56182;BME280;51963;46.052;14.544;2023-04-08T01:16:57;98187.28;;;4.84;69.89
56182;BME280;51963;46.052;14.544;2023-04-08T01:19:32;98194.47;;;4.82;70.36
56182;BME280;51963;46.052;14.544;2023-04-08T01:22:50;98188.19;;;4.75;71.55
56182;BME280;51963;46.052;14.544;2023-04-08T01:25:05;98185.22;;;4.70;71.38
56182;BME280;51963;46.052;14.544;2023-04-08T01:27:34;98191.91;;;4.64;72.35
56182;BME280;51963;46.052;14.544;2023-04-08T01:30:03;98184.75;;;4.48;74.62
56182;BME280;51963;46.052;14.544;2023-04-08T01:32:31;98193.75;;;4.46;75.61
56182;BME280;51963;46.052;14.544;2023-04-08T01:34:58;98176.78;;;4.32;75.61
56182;BME280;51963;46.052;14.544;2023-04-08T01:37:28;98182.38;;;4.37;76.36
56182;BME280;51963;46.052;14.544;2023-04-08T01:39:55;98182.69;;;4.34;76.80
56182;BME280;51963;46.052;14.544;2023-04-08T01:42:23;98193.47;;;4.31;78.02
56182;BME280;51963;46.052;14.544;2023-04-08T01:44:54;98187.88;;;4.25;78.92
56182;BME280;51963;46.052;14.544;2023-04-08T01:47:21;98167.78;;;4.08;79.61
56182;BME280;51963;46.052;14.544;2023-04-08T01:49:49;98180.84;;;4.08;79.50
56182;BME280;51963;46.052;14.544;2023-04-08T01:52:17;98185.28;;;4.07;79.42
56182;BME280;51963;46.052;14.544;2023-04-08T01:54:44;98174.06;;;3.97;79.68
56182;BME280;51963;46.052;14.544;2023-04-08T01:57:13;98179.81;;;4.01;80.70
56182;BME280;51963;46.052;14.544;2023-04-08T01:59:40;98183.03;;;3.94;81.13
56182;BME280;51963;46.052;14.544;2023-04-08T02:02:08;98177.97;;;3.93;81.68
56182;BME280;51963;46.052;14.544;2023-04-08T02:04:35;98184.59;;;3.87;82.53
56182;BME280;51963;46.052;14.544;2023-04-08T02:07:01;98179.81;;;3.83;83.25
56182;BME280;51963;46.052;14.544;2023-04-08T02:09:28;98181.59;;;3.82;82.81
56182;BME280;51963;46.052;14.544;2023-04-08T02:11:55;98159.06;;;3.63;82.84
56182;BME280;51963;46.052;14.544;2023-04-08T02:14:22;98164.56;;;3.78;82.64
56182;BME280;51963;46.052;14.544;2023-04-08T02:16:52;98179.22;;;3.89;82.07
56182;BME280;51963;46.052;14.544;2023-04-08T02:19:29;98175.19;;;3.94;81.79
56182;BME280;51963;46.052;14.544;2023-04-08T02:22:09;98180.34;;;4.04;83.10
56182;BME280;51963;46.052;14.544;2023-04-08T02:24:37;98178.91;;;4.10;83.50
56182;BME280;51963;46.052;14.544;2023-04-08T02:27:03;98180.41;;;4.13;82.53
56182;BME280;51963;46.052;14.544;2023-04-08T02:29:30;98181.59;;;4.18;81.61
56182;BME280;51963;46.052;14.544;2023-04-08T02:32:01;98175.91;;;4.23;80.54
56182;BME280;51963;46.052;14.544;2023-04-08T02:34:29;98184.56;;;4.42;80.18
56182;BME280;51963;46.052;14.544;2023-04-08T02:36:55;98184.56;;;4.42;79.49
56182;BME280;51963;46.052;14.544;2023-04-08T02:39:20;98182.44;;;4.45;79.31
56182;BME280;51963;46.052;14.544;2023-04-08T02:41:48;98188.22;;;4.49;80.33
56182;BME280;51963;46.052;14.544;2023-04-08T02:44:14;98184.75;;;4.48;80.04
56182;BME280;51963;46.052;14.544;2023-04-08T02:46:39;98179.53;;;4.48;79.81
56182;BME280;51963;46.052;14.544;2023-04-08T02:49:05;98180.09;;;4.60;78.43
56182;BME280;51963;46.052;14.544;2023-04-08T02:51:31;98181.44;;;4.64;78.54
56182;BME280;51963;46.052;14.544;2023-04-08T02:53:57;98183.41;;;4.62;76.52
56182;BME280;51963;46.052;14.544;2023-04-08T02:56:23;98181.13;;;4.67;76.90
56182;BME280;51963;46.052;14.544;2023-04-08T02:58:49;98176.34;;;4.63;76.31
56182;BME280;51963;46.052;14.544;2023-04-08T03:01:16;98189.13;;;4.66;76.74
56182;BME280;51963;46.052;14.544;2023-04-08T03:03:42;98172.75;;;4.64;76.42
56182;BME280;51963;46.052;14.544;2023-04-08T03:06:07;98183.88;;;4.66;75.67
56182;BME280;51963;46.052;14.544;2023-04-08T03:08:33;98166.84;;;4.62;76.18
56182;BME280;51963;46.052;14.544;2023-04-08T03:10:59;98186.78;;;4.81;76.94
56182;BME280;51963;46.052;14.544;2023-04-08T03:13:24;98188.72;;;4.79;73.78
56182;BME280;51963;46.052;14.544;2023-04-08T03:15:50;98185.44;;;4.77;74.22
56182;BME280;51963;46.052;14.544;2023-04-08T03:18:16;98189.22;;;4.82;72.99
56182;BME280;51963;46.052;14.544;2023-04-08T03:20:42;98182.34;;;4.81;73.27
56182;BME280;51963;46.052;14.544;2023-04-08T03:23:08;98180.69;;;4.80;73.60
56182;BME280;51963;46.052;14.544;2023-04-08T03:25:33;98178.75;;;4.82;74.54
56182;BME280;51963;46.052;14.544;2023-04-08T03:27:59;98178.25;;;4.79;74.85
56182;BME280;51963;46.052;14.544;2023-04-08T03:30:25;98181.00;;;4.77;75.11
56182;BME280;51963;46.052;14.544;2023-04-08T03:32:50;98173.41;;;4.66;75.47
56182;BME280;51963;46.052;14.544;2023-04-08T03:35:16;98182.66;;;4.78;74.41
56182;BME280;51963;46.052;14.544;2023-04-08T03:37:42;98179.38;;;4.76;74.35
56182;BME280;51963;46.052;14.544;2023-04-08T03:40:08;98182.91;;;4.93;73.96
56182;BME280;51963;46.052;14.544;2023-04-08T03:42:34;98164.06;;;4.90;73.32
56182;BME280;51963;46.052;14.544;2023-04-08T03:44:59;98173.94;;;5.04;73.35
56182;BME280;51963;46.052;14.544;2023-04-08T03:47:25;98180.34;;;5.02;75.52
56182;BME280;51963;46.052;14.544;2023-04-08T03:49:52;98182.06;;;4.93;76.35
56182;BME280;51963;46.052;14.544;2023-04-08T03:52:19;98180.06;;;4.87;76.90
56182;BME280;51963;46.052;14.544;2023-04-08T03:54:45;98186.47;;;4.84;77.76
56182;BME280;51963;46.052;14.544;2023-04-08T03:57:10;98190.06;;;4.83;78.61
56182;BME280;51963;46.052;14.544;2023-04-08T03:59:36;98189.31;;;4.99;79.91
56182;BME280;51963;46.052;14.544;2023-04-08T04:02:04;98191.03;;;5.17;79.07
56182;BME280;51963;46.052;14.544;2023-04-08T04:04:29;98190.72;;;5.20;78.14
56182;BME280;51963;46.052;14.544;2023-04-08T04:06:55;98180.28;;;4.93;76.26
56182;BME280;51963;46.052;14.544;2023-04-08T04:09:21;98199.13;;;4.97;75.13
56182;BME280;51963;46.052;14.544;2023-04-08T04:11:46;98196.50;;;4.97;75.31
56182;BME280;51963;46.052;14.544;2023-04-08T04:14:12;98198.16;;;4.98;75.61
56182;BME280;51963;46.052;14.544;2023-04-08T04:16:38;98200.78;;;4.98;76.18
56182;BME280;51963;46.052;14.544;2023-04-08T04:19:03;98197.44;;;4.88;76.38
56182;BME280;51963;46.052;14.544;2023-04-08T04:21:30;98200.22;;;4.86;76.80
56182;BME280;51963;46.052;14.544;2023-04-08T04:23:55;98202.00;;;4.85;76.80
56182;BME280;51963;46.052;14.544;2023-04-08T04:26:21;98203.50;;;4.88;76.70
56182;BME280;51963;46.052;14.544;2023-04-08T04:28:47;98208.00;;;5.04;77.57
56182;BME280;51963;46.052;14.544;2023-04-08T04:31:23;98223.31;;;5.17;75.43
56182;BME280;51963;46.052;14.544;2023-04-08T04:33:55;98209.41;;;5.25;76.99
56182;BME280;51963;46.052;14.544;2023-04-08T04:36:20;98207.91;;;5.14;75.68
56182;BME280;51963;46.052;14.544;2023-04-08T04:38:46;98208.56;;;5.16;75.41
56182;BME280;51963;46.052;14.544;2023-04-08T04:41:12;98204.00;;;5.18;74.54
56182;BME280;51963;46.052;14.544;2023-04-08T04:43:37;98204.84;;;5.27;74.05
56182;BME280;51963;46.052;14.544;2023-04-08T04:46:03;98191.25;;;5.23;71.54
56182;BME280;51963;46.052;14.544;2023-04-08T04:48:32;98216.94;;;5.20;73.09
56182;BME280;51963;46.052;14.544;2023-04-08T04:50:59;98190.06;;;5.18;74.56
56182;BME280;51963;46.052;14.544;2023-04-08T04:53:29;98210.66;;;5.12;74.00
56182;BME280;51963;46.052;14.544;2023-04-08T04:55:55;98205.34;;;4.96;73.65
56182;BME280;51963;46.052;14.544;2023-04-08T04:58:20;98210.22;;;4.91;74.51
56182;BME280;51963;46.052;14.544;2023-04-08T05:00:46;98216.25;;;4.83;75.36
56182;BME280;51963;46.052;14.544;2023-04-08T05:03:12;98205.56;;;4.76;75.85
56182;BME280;51963;46.052;14.544;2023-04-08T05:05:38;98209.16;;;4.75;75.74
56182;BME280;51963;46.052;14.544;2023-04-08T05:08:04;98213.91;;;4.72;76.48
56182;BME280;51963;46.052;14.544;2023-04-08T05:10:29;98219.94;;;4.72;76.45
56182;BME280;51963;46.052;14.544;2023-04-08T05:12:55;98202.88;;;4.68;77.07
56182;BME280;51963;46.052;14.544;2023-04-08T05:15:21;98214.09;;;4.78;75.96
56182;BME280;51963;46.052;14.544;2023-04-08T05:17:47;98222.31;;;4.83;74.62
56182;BME280;51963;46.052;14.544;2023-04-08T05:20:12;98217.94;;;4.92;74.76
56182;BME280;51963;46.052;14.544;2023-04-08T05:22:38;98221.78;;;5.06;73.49
56182;BME280;51963;46.052;14.544;2023-04-08T05:25:04;98200.63;;;4.99;72.41
56182;BME280;51963;46.052;14.544;2023-04-08T05:27:30;98226.41;;;5.12;71.95
56182;BME280;51963;46.052;14.544;2023-04-08T05:29:56;98225.44;;;5.22;71.19
56182;BME280;51963;46.052;14.544;2023-04-08T05:32:22;98235.03;;;5.31;71.06
56182;BME280;51963;46.052;14.544;2023-04-08T05:34:48;98232.75;;;5.36;71.02
56182;BME280;51963;46.052;14.544;2023-04-08T05:37:13;98231.81;;;5.46;72.50
56182;BME280;51963;46.052;14.544;2023-04-08T05:39:39;98230.03;;;5.54;72.50
56182;BME280;51963;46.052;14.544;2023-04-08T05:42:05;98236.13;;;5.63;71.06
56182;BME280;51963;46.052;14.544;2023-04-08T05:44:30;98218.94;;;5.77;70.42
56182;BME280;51963;46.052;14.544;2023-04-08T05:46:56;98243.72;;;5.83;70.73
56182;BME280;51963;46.052;14.544;2023-04-08T05:49:22;98244.69;;;5.73;70.53
56182;BME280;51963;46.052;14.544;2023-04-08T05:51:48;98249.63;;;5.77;70.63
56182;BME280;51963;46.052;14.544;2023-04-08T05:54:14;98253.56;;;5.81;70.53
56182;BME280;51963;46.052;14.544;2023-04-08T05:56:40;98244.69;;;5.73;71.05
56182;BME280;51963;46.052;14.544;2023-04-08T05:59:06;98253.25;;;5.84;70.90
56182;BME280;51963;46.052;14.544;2023-04-08T06:01:31;98260.50;;;5.98;70.27
56182;BME280;51963;46.052;14.544;2023-04-08T06:03:57;98258.25;;;6.20;69.57
56182;BME280;51963;46.052;14.544;2023-04-08T06:06:24;98254.16;;;6.18;69.75
56182;BME280;51963;46.052;14.544;2023-04-08T06:08:50;98251.19;;;6.21;69.72
56182;BME280;51963;46.052;14.544;2023-04-08T06:11:16;98253.69;;;6.30;69.16
56182;BME280;51963;46.052;14.544;2023-04-08T06:13:42;98252.69;;;6.31;68.99
56182;BME280;51963;46.052;14.544;2023-04-08T06:16:12;98255.66;;;6.37;69.04
56182;BME280;51963;46.052;14.544;2023-04-08T06:18:38;98229.38;;;6.28;67.29
56182;BME280;51963;46.052;14.544;2023-04-08T06:21:04;98246.47;;;6.49;66.20
56182;BME280;51963;46.052;14.544;2023-04-08T06:23:33;98246.59;;;6.64;68.60
56182;BME280;51963;46.052;14.544;2023-04-08T06:26:05;98253.81;;;6.79;66.12
56182;BME280;51963;46.052;14.544;2023-04-08T06:28:31;98240.03;;;6.60;66.34
56182;BME280;51963;46.052;14.544;2023-04-08T06:30:58;98220.50;;;6.63;66.05
56182;BME280;51963;46.052;14.544;2023-04-08T06:33:24;98249.75;;;6.68;67.15
56182;BME280;51963;46.052;14.544;2023-04-08T06:36:03;98259.91;;;6.63;68.58
56182;BME280;51963;46.052;14.544;2023-04-08T06:38:29;98262.69;;;6.61;68.77
56182;BME280;51963;46.052;14.544;2023-04-08T06:41:01;98251.06;;;6.47;69.29
56182;BME280;51963;46.052;14.544;2023-04-08T06:43:27;98262.22;;;6.57;68.62
56182;BME280;51963;46.052;14.544;2023-04-08T06:45:54;98272.06;;;6.55;68.60
56182;BME280;51963;46.052;14.544;2023-04-08T06:48:20;98274.69;;;6.55;68.56
56182;BME280;51963;46.052;14.544;2023-04-08T06:50:48;98273.72;;;6.48;68.93
56182;BME280;51963;46.052;14.544;2023-04-08T06:53:14;98271.41;;;6.45;69.83
56182;BME280;51963;46.052;14.544;2023-04-08T06:55:40;98269.13;;;6.58;68.89
56182;BME280;51963;46.052;14.544;2023-04-08T06:58:05;98267.94;;;6.53;69.04
56182;BME280;51963;46.052;14.544;2023-04-08T07:00:31;98277.66;;;6.60;70.23
56182;BME280;51963;46.052;14.544;2023-04-08T07:02:58;98282.25;;;6.67;70.45
56182;BME280;51963;46.052;14.544;2023-04-08T07:05:23;98272.88;;;6.48;69.50
56182;BME280;51963;46.052;14.544;2023-04-08T07:07:54;98281.25;;;6.76;69.12
56182;BME280;51963;46.052;14.544;2023-04-08T07:10:20;98292.44;;;6.78;67.92
56182;BME280;51963;46.052;14.544;2023-04-08T07:12:49;98285.84;;;6.90;68.02
56182;BME280;51963;46.052;14.544;2023-04-08T07:15:16;98292.75;;;6.75;68.45
56182;BME280;51963;46.052;14.544;2023-04-08T07:17:42;98293.41;;;6.85;69.28
56182;BME280;51963;46.052;14.544;2023-04-08T07:20:08;98299.97;;;6.98;68.96
56182;BME280;51963;46.052;14.544;2023-04-08T07:22:35;98301.09;;;6.95;68.92
56182;BME280;51963;46.052;14.544;2023-04-08T07:25:00;98301.94;;;6.87;69.49
56182;BME280;51963;46.052;14.544;2023-04-08T07:27:27;98304.25;;;6.99;68.95
56182;BME280;51963;46.052;14.544;2023-04-08T07:29:53;98301.75;;;7.05;68.55
56182;BME280;51963;46.052;14.544;2023-04-08T07:32:19;98283.53;;;7.04;69.00
56182;BME280;51963;46.052;14.544;2023-04-08T07:34:45;98298.97;;;7.07;69.86
56182;BME280;51963;46.052;14.544;2023-04-08T07:37:10;98307.16;;;7.21;69.33
56182;BME280;51963;46.052;14.544;2023-04-08T07:39:36;98292.72;;;7.08;69.87
56182;BME280;51963;46.052;14.544;2023-04-08T07:42:02;98309.00;;;6.95;69.78
56182;BME280;51963;46.052;14.544;2023-04-08T07:44:27;98315.19;;;7.19;68.55
56182;BME280;51963;46.052;14.544;2023-04-08T07:46:53;98319.28;;;7.38;68.13
56182;BME280;51963;46.052;14.544;2023-04-08T07:49:19;98321.38;;;7.51;66.49
56182;BME280;51963;46.052;14.544;2023-04-08T07:51:44;98307.91;;;7.46;67.84
56182;BME280;51963;46.052;14.544;2023-04-08T07:54:10;98321.66;;;7.64;64.88
56182;BME280;51963;46.052;14.544;2023-04-08T07:56:37;98313.31;;;7.61;64.50
56182;BME280;51963;46.052;14.544;2023-04-08T07:59:05;98316.75;;;7.53;63.64
56182;BME280;51963;46.052;14.544;2023-04-08T08:01:31;98320.63;;;7.74;63.00
56182;BME280;51963;46.052;14.544;2023-04-08T08:04:00;98325.25;;;7.72;63.44
56182;BME280;51963;46.052;14.544;2023-04-08T08:06:26;98328.50;;;7.82;61.33
56182;BME280;51963;46.052;14.544;2023-04-08T08:08:57;98334.31;;;7.69;61.29
56182;BME280;51963;46.052;14.544;2023-04-08T08:11:23;98342.16;;;7.86;61.50
56182;BME280;51963;46.052;14.544;2023-04-08T08:13:48;98320.72;;;7.97;60.91
56182;BME280;51963;46.052;14.544;2023-04-08T08:16:18;98326.59;;;8.07;60.64
56182;BME280;51963;46.052;14.544;2023-04-08T08:18:43;98340.13;;;8.36;59.76
56182;BME280;51963;46.052;14.544;2023-04-08T08:21:09;98334.09;;;8.19;60.89
56182;BME280;51963;46.052;14.544;2023-04-08T08:23:35;98349.31;;;8.40;59.64
56182;BME280;51963;46.052;14.544;2023-04-08T08:26:04;98344.59;;;8.82;60.51
56182;BME280;51963;46.052;14.544;2023-04-08T08:28:32;98339.97;;;9.22;57.83
56182;BME280;51963;46.052;14.544;2023-04-08T08:31:00;98341.97;;;9.50;56.76
56182;BME280;51963;46.052;14.544;2023-04-08T08:33:30;98340.34;;;9.79;55.97
56182;BME280;51963;46.052;14.544;2023-04-08T08:36:01;98316.97;;;9.46;54.40
56182;BME280;51963;46.052;14.544;2023-04-08T08:38:29;98346.81;;;9.62;54.40
56182;BME280;51963;46.052;14.544;2023-04-08T08:40:59;98350.19;;;9.56;53.77
56182;BME280;51963;46.052;14.544;2023-04-08T08:43:26;98346.16;;;9.60;55.18
56182;BME280;51963;46.052;14.544;2023-04-08T08:45:54;98347.19;;;9.59;55.78
56182;BME280;51963;46.052;14.544;2023-04-08T08:48:19;98346.69;;;10.15;53.51
56182;BME280;51963;46.052;14.544;2023-04-08T08:50:45;98347.78;;;10.79;50.35
56182;BME280;51963;46.052;14.544;2023-04-08T08:53:11;98352.88;;;11.31;47.79
56182;BME280;51963;46.052;14.544;2023-04-08T08:55:37;98353.94;;;10.86;48.42
56182;BME280;51963;46.052;14.544;2023-04-08T08:58:04;98349.22;;;11.61;46.83
56182;BME280;51963;46.052;14.544;2023-04-08T09:00:36;98339.66;;;11.66;45.30
56182;BME280;51963;46.052;14.544;2023-04-08T09:05:55;98342.25;;;11.95;43.84
56182;BME280;51963;46.052;14.544;2023-04-08T09:08:34;98361.50;;;12.10;45.33
56182;BME280;51963;46.052;14.544;2023-04-08T09:11:17;98356.44;;;12.22;44.80
56182;BME280;51963;46.052;14.544;2023-04-08T09:13:44;98363.78;;;11.78;46.87
56182;BME280;51963;46.052;14.544;2023-04-08T09:16:16;98362.00;;;12.34;44.78
56182;BME280;51963;46.052;14.544;2023-04-08T09:18:48;98364.91;;;12.53;42.75
56182;BME280;51963;46.052;14.544;2023-04-08T09:21:16;98347.38;;;12.52;41.80
56182;BME280;51963;46.052;14.544;2023-04-08T09:23:50;98358.22;;;12.70;41.93
56182;BME280;51963;46.052;14.544;2023-04-08T09:26:18;98360.25;;;12.68;40.67
56182;BME280;51963;46.052;14.544;2023-04-08T09:28:59;98362.22;;;12.39;40.86
56182;BME280;51963;46.052;14.544;2023-04-08T09:31:27;98362.00;;;12.34;40.44
56182;BME280;51963;46.052;14.544;2023-04-08T09:33:58;98350.16;;;11.53;43.63
56182;BME280;51963;46.052;14.544;2023-04-08T09:36:25;98350.47;;;11.36;43.82
56182;BME280;51963;46.052;14.544;2023-04-08T09:38:52;98365.06;;;11.25;44.16
56182;BME280;51963;46.052;14.544;2023-04-08T09:41:19;98363.00;;;11.91;43.54
56182;BME280;51963;46.052;14.544;2023-04-08T09:43:55;98359.56;;;12.39;42.86
56182;BME280;51963;46.052;14.544;2023-04-08T09:49:05;98350.81;;;12.52;42.78
56182;BME280;51963;46.052;14.544;2023-04-08T09:52:14;98351.06;;;12.77;41.82
56182;BME280;51963;46.052;14.544;2023-04-08T09:57:16;98356.81;;;12.88;40.52
56182;BME280;51963;46.052;14.544;2023-04-08T09:59:53;98353.50;;;12.59;41.08
56182;BME280;51963;46.052;14.544;2023-04-08T10:02:28;98355.53;;;12.57;42.54
56182;BME280;51963;46.052;14.544;2023-04-08T10:04:59;98358.59;;;12.67;41.07
56182;BME280;51963;46.052;14.544;2023-04-08T10:07:28;98361.50;;;12.10;41.83
56182;BME280;51963;46.052;14.544;2023-04-08T10:09:54;98334.16;;;12.03;41.88
56182;BME280;51963;46.052;14.544;2023-04-08T10:12:21;98351.75;;;12.24;42.60
56182;BME280;51963;46.052;14.544;2023-04-08T10:15:28;98363.72;;;11.71;44.22
56182;BME280;51963;46.052;14.544;2023-04-08T10:20:44;98350.25;;;12.70;42.66
56182;BME280;51963;46.052;14.544;2023-04-08T10:23:12;98346.78;;;12.76;41.91
56182;BME280;51963;46.052;14.544;2023-04-08T10:30:49;98353.91;;;13.63;40.55
56182;BME280;51963;46.052;14.544;2023-04-08T10:33:20;98348.25;;;14.12;42.51
56182;BME280;51963;46.052;14.544;2023-04-08T10:38:14;98350.44;;;14.61;39.86
56182;BME280;51963;46.052;14.544;2023-04-08T10:40:41;98336.56;;;13.41;40.43
56182;BME280;51963;46.052;14.544;2023-04-08T10:43:09;98351.88;;;13.72;41.79
56182;BME280;51963;46.052;14.544;2023-04-08T10:45:36;98334.75;;;13.48;42.08
56182;BME280;51963;46.052;14.544;2023-04-08T10:51:04;98338.19;;;14.92;38.99
56182;BME280;51963;46.052;14.544;2023-04-08T10:53:36;98348.63;;;15.19;38.41
56182;BME280;51963;46.052;14.544;2023-04-08T10:56:10;98349.50;;;15.13;38.34
56182;BME280;51963;46.052;14.544;2023-04-08T10:58:52;98347.94;;;15.67;38.57
56182;BME280;51963;46.052;14.544;2023-04-08T11:01:19;98343.91;;;15.83;38.14
56182;BME280;51963;46.052;14.544;2023-04-08T11:03:45;98329.53;;;16.03;37.86
56182;BME280;51963;46.052;14.544;2023-04-08T11:06:11;98327.47;;;16.66;36.43
56182;BME280;51963;46.052;14.544;2023-04-08T11:08:37;98339.34;;;16.40;36.37
56182;BME280;51963;46.052;14.544;2023-04-08T11:11:06;98340.28;;;16.15;36.51
56182;BME280;51963;46.052;14.544;2023-04-08T11:13:40;98353.66;;;15.52;36.74
56182;BME280;51963;46.052;14.544;2023-04-08T11:16:11;98327.81;;;15.09;38.10
56182;BME280;51963;46.052;14.544;2023-04-08T11:18:38;98335.22;;;15.51;37.70
56182;BME280;51963;46.052;14.544;2023-04-08T11:21:08;98332.31;;;14.83;39.64
56182;BME280;51963;46.052;14.544;2023-04-08T11:23:37;98333.56;;;15.50;38.14
56182;BME280;51963;46.052;14.544;2023-04-08T11:26:03;98327.94;;;15.39;38.97
56182;BME280;51963;46.052;14.544;2023-04-08T11:28:29;98331.66;;;15.76;38.84
56182;BME280;51963;46.052;14.544;2023-04-08T11:30:56;98316.13;;;15.54;38.75
56182;BME280;51963;46.052;14.544;2023-04-08T11:33:25;98325.84;;;15.23;39.71
56182;BME280;51963;46.052;14.544;2023-04-08T11:35:53;98327.88;;;15.02;40.40
56182;BME280;51963;46.052;14.544;2023-04-08T11:38:23;98332.06;;;15.35;39.43
56182;BME280;51963;46.052;14.544;2023-04-08T11:40:57;98332.44;;;14.95;40.94
56182;BME280;51963;46.052;14.544;2023-04-08T11:43:23;98330.88;;;14.87;41.39
56182;BME280;51963;46.052;14.544;2023-04-08T11:45:50;98324.84;;;15.80;39.91
56182;BME280;51963;46.052;14.544;2023-04-08T11:48:16;98329.25;;;15.30;40.38
56182;BME280;51963;46.052;14.544;2023-04-08T11:50:43;98322.19;;;15.80;39.74
56182;BME280;51963;46.052;14.544;2023-04-08T11:53:24;98306.34;;;16.65;37.12
56182;BME280;51963;46.052;14.544;2023-04-08T11:55:50;98295.34;;;17.68;35.83
56182;BME280;51963;46.052;14.544;2023-04-08T11:58:16;98308.06;;;16.59;37.92
56182;BME280;51963;46.052;14.544;2023-04-08T12:00:43;98310.16;;;17.11;37.07
56182;BME280;51963;46.052;14.544;2023-04-08T12:03:10;98299.84;;;17.80;36.48
56182;BME280;51963;46.052;14.544;2023-04-08T12:05:37;98307.84;;;18.03;35.78
56182;BME280;51963;46.052;14.544;2023-04-08T12:08:02;98296.47;;;18.88;34.38
56182;BME280;51963;46.052;14.544;2023-04-08T12:10:28;98302.22;;;19.71;33.41
56182;BME280;51963;46.052;14.544;2023-04-08T12:12:56;98298.53;;;20.21;33.02
56182;BME280;51963;46.052;14.544;2023-04-08T12:15:22;98285.66;;;18.49;33.77
56182;BME280;51963;46.052;14.544;2023-04-08T12:17:47;98292.44;;;20.04;33.75
56182;BME280;51963;46.052;14.544;2023-04-08T12:20:13;98291.81;;;18.21;33.91
56182;BME280;51963;46.052;14.544;2023-04-08T12:22:41;98291.66;;;18.56;34.79
56182;BME280;51963;46.052;14.544;2023-04-08T12:25:07;98285.28;;;17.87;35.22
56182;BME280;51963;46.052;14.544;2023-04-08T12:27:33;98286.16;;;18.80;32.84
56182;BME280;51963;46.052;14.544;2023-04-08T12:29:59;98289.00;;;18.90;33.77
56182;BME280;51963;46.052;14.544;2023-04-08T12:32:25;98289.00;;;20.69;31.14
56182;BME280;51963;46.052;14.544;2023-04-08T12:34:51;98287.94;;;20.70;31.21
56182;BME280;51963;46.052;14.544;2023-04-08T12:37:17;98277.75;;;21.47;29.80
56182;BME280;51963;46.052;14.544;2023-04-08T12:39:43;98279.28;;;21.91;29.03
56182;BME280;51963;46.052;14.544;2023-04-08T12:42:08;98278.66;;;23.81;27.91
56182;BME280;51963;46.052;14.544;2023-04-08T12:44:34;98289.88;;;21.12;30.15
56182;BME280;51963;46.052;14.544;2023-04-08T12:47:00;98276.16;;;21.51;29.95
56182;BME280;51963;46.052;14.544;2023-04-08T12:49:26;98290.16;;;19.73;31.94
56182;BME280;51963;46.052;14.544;2023-04-08T12:51:52;98276.44;;;17.58;35.20
56182;BME280;51963;46.052;14.544;2023-04-08T12:54:18;98280.63;;;17.95;36.29
56182;BME280;51963;46.052;14.544;2023-04-08T12:56:44;98275.63;;;17.34;37.17
56182;BME280;51963;46.052;14.544;2023-04-08T12:59:11;98280.41;;;17.43;36.69
56182;BME280;51963;46.052;14.544;2023-04-08T13:01:36;98275.63;;;19.08;34.03
56182;BME280;51963;46.052;14.544;2023-04-08T13:04:02;98269.44;;;18.10;35.24
56182;BME280;51963;46.052;14.544;2023-04-08T13:06:28;98270.06;;;17.35;37.63
56182;BME280;51963;46.052;14.544;2023-04-08T13:08:54;98269.84;;;16.35;39.67
56182;BME280;51963;46.052;14.544;2023-04-08T13:11:19;98260.69;;;15.44;41.23
56182;BME280;51963;46.052;14.544;2023-04-08T13:13:48;98282.16;;;15.05;42.32
56182;BME280;51963;46.052;14.544;2023-04-08T13:16:15;98277.69;;;14.48;45.35
56182;BME280;51963;46.052;14.544;2023-04-08T13:18:41;98267.44;;;14.52;44.80
56182;BME280;51963;46.052;14.544;2023-04-08T13:21:08;98267.81;;;14.23;45.54
56182;BME280;51963;46.052;14.544;2023-04-08T13:23:34;98269.69;;;14.48;46.13